• Join FlightAware (Why Join?)
  • Login
  • US Flag 
06:34AM EDT


 

Airport Tracker/Info


-or-


 

Live Flight TrackerFlight Track Log ✈ AWE2690 ✈ 19-Sep-2013 ✈ KIAD - KCLT

Flight Track Log - Related Links

Times and Time Zones

All times are in EDT time to prevent confusion due to time zone crossing. See the AWE2690 flight status page for this flight to view local times or setup timezone preferences in your user account.

Time Position Orientation Groundspeed Altitude Reporting Facility
EDT Latitude Longitude Course Direction KTS MPH feet Rate Location/Type
12:08PM 38.9333 -77.5167 229° Southwest 186 214 2,000  Level Potomac TRACON
12:09PM 38.8667 -77.5167 180° South 229 264 4,500 2,580 Climbing Potomac TRACON
12:10PM 38.8000 -77.5333 191° South 275 316 7,200 2,760 Climbing Potomac TRACON
12:11PM 38.7167 -77.5333 180° South 293 337 10,100 1,800 Climbing Potomac TRACON
12:12PM 38.6333 -77.4833 155° Southeast 315 362 10,900 540 Climbing Potomac TRACON
12:13PM 38.4485 -77.9526 218° Southwest  Level Estimated
12:13PM 38.5989 -77.4486 142° Southeast 309 356 11,000  Level Washington Center
12:14PM 38.3652 -78.0340 229° Southwest  Level Estimated
12:14PM 38.5286 -77.4042 154° Southeast 308 354 12,800  Level Washington Center
12:15PM 38.4567 -77.4714 216° Southwest 281 323 14,100 1,560 Climbing Washington Center
12:16PM 38.3822 -77.5622 224° Southwest 311 358 16,000 2,100 Climbing Washington Center
12:17PM 38.3242 -77.6772 237° Southwest 341 392 18,300 2,040 Climbing Washington Center
12:18PM 38.2556 -77.7836 231° Southwest 375 432 20,200 1,860 Climbing Washington Center
12:19PM 38.1867 -77.8928 231° Southwest 395 455 22,000 1,740 Climbing Washington Center
12:20PM 38.1114 -78.0064 230° Southwest 409 471 23,700 960 Climbing Washington Center
12:21PM 38.0319 -78.1253 230° Southwest 431 496 24,000 120 Climbing Washington Center
12:22PM 37.9456 -78.2592 231° Southwest 439 505 24,000  Level Washington Center
12:23PM 37.8658 -78.3722 228° Southwest 472 543 24,000  Level Washington Center
12:24PM 37.7794 -78.4978 229° Southwest 477 549 24,000  Level Washington Center
12:25PM 37.6928 -78.6203 228° Southwest 477 549 24,000  Level Washington Center
12:26PM 37.6083 -78.7403 228° Southwest 477 549 24,000  Level Washington Center
12:27PM 37.5153 -78.8700 228° Southwest 472 543 24,000  Level Washington Center
12:28PM 37.4283 -78.9917 228° Southwest 472 543 24,000  Level Washington Center
12:29PM 37.3436 -79.1081 228° Southwest 472 543 24,000  Level Washington Center
12:30PM 37.2567 -79.2267 227° Southwest 472 543 24,000  Level Washington Center
12:31PM 37.1558 -79.3183 216° Southwest 465 535 24,000  Level Washington Center
12:32PM 37.0489 -79.4069 213° Southwest 465 535 24,000  Level Washington Center
12:33PM 36.9544 -79.4856 214° Southwest 465 535 24,000  Level Washington Center
12:34PM 36.8472 -79.5733 213° Southwest 465 535 24,000  Level Washington Center
12:35PM 36.7400 -79.6586 213° Southwest 465 535 24,000  Level Washington Center
12:36PM 36.6325 -79.7489 214° Southwest 465 535 24,000  Level Washington Center
12:37PM 36.5147 -79.8408 212° Southwest 465 535 24,000  Level Washington Center
12:39PM 36.2522 -80.0583 214° Southwest 438 504 24,000 -360 Level Atlanta Center
12:40PM 36.1608 -80.1347 214° Southwest 431 496 22,800 -1,620 Descending Atlanta Center
12:41PM 36.0694 -80.2111 214° Southwest 431 496 20,800 -2,040 Descending Atlanta Center
12:42PM 35.9822 -80.2872 215° Southwest 431 496 18,800 -1,860 Descending Atlanta Center
12:43PM 35.8989 -80.3628 216° Southwest 431 496 17,100 -1,920 Descending Atlanta Center
12:44PM 35.8175 -80.4306 214° Southwest 364 419 15,000 -1,740 Descending Atlanta Center
12:45PM 35.7728 -80.4708 216° Southwest 335 386 14,400 -1,020 Descending Atlanta Center
12:45PM 35.7422 -80.4925 210° Southwest 354 407 14,000 -1,260 Descending Atlanta Center
12:46PM 35.7056 -80.5275 218° Southwest 313 360 13,300 -1,200 Descending Atlanta Center
12:46PM 35.6667 -80.5572 212° Southwest 336 387 12,800 -1,140 Descending Atlanta Center
12:47PM 35.6383 -80.5867 220° Southwest 348 400 12,300 -1,320 Descending Atlanta Center
12:47PM 35.5831 -80.6247 209° Southwest 350 403 11,500 -1,020 Descending Atlanta Center
12:48PM 35.5200 -80.6808 216° Southwest 371 427 11,000 -540 Descending Atlanta Center
12:48PM 35.5078 -80.6889 208° Southwest 363 418 11,000 -1,260 Level Atlanta Center
12:49PM 35.4528 -80.7372 216° Southwest 375 432 10,000 -1,020 Descending Atlanta Center
12:49PM 35.4200 -80.7614 211° Southwest 372 428 10,000 -120 Level Atlanta Center
12:50PM 35.3547 -80.8175 215° Southwest 369 425 9,900  Descending Atlanta Center
12:50PM 35.3364 -80.8308 211° Southwest 372 428 10,000 -300 Climbing Atlanta Center
12:51PM 35.2656 -80.8386 185° South 311 358 9,600 -1,560 Descending Atlanta Center
12:52PM 35.1778 -80.8319 176° South 276 318 7,300 -1,920 Descending Atlanta Center
12:52PM 35.1611 -80.8325 182° South 302 348 7,100 -1,680 Descending Atlanta Center
12:53PM 35.0797 -80.8308 179° South 297 342 5,300 -1,980 Descending Atlanta Center
12:54PM 35.0517 -80.8825 236° Southwest 263 303 3,600 -1,440 Descending Atlanta Center
12:55PM 35.0947 -80.9267 320° Northwest 210 242 2,900 -900 Descending Atlanta Center
12:56PM 35.1553 -80.9319 356° North 147 169 1,700 -900 Descending Atlanta Center
12:57PM 35.1886 -80.9358 355° North 140 161 1,000 -900 Descending Atlanta Center
12:59PM 35.2000 -80.9333 219° Southwest  Level FlightAware Approximate